sensor_id;sensor_type;location;lat;lon;timestamp;temperature;humidity
18948;DHT22;9607;51.600;7.558;2023-05-07T00:00:41;13.30;99.90
18948;DHT22;9607;51.600;7.558;2023-05-07T00:03:08;13.30;99.90
18948;DHT22;9607;51.600;7.558;2023-05-07T00:05:36;13.30;99.90
18948;DHT22;9607;51.600;7.558;2023-05-07T00:08:06;13.40;99.90
18948;DHT22;9607;51.600;7.558;2023-05-07T00:10:32;13.40;99.90
18948;DHT22;9607;51.600;7.558;2023-05-07T00:12:59;13.40;99.90
18948;DHT22;9607;51.600;7.558;2023-05-07T00:15:26;13.50;99.90
18948;DHT22;9607;51.600;7.558;2023-05-07T00:17:56;13.50;99.90
18948;DHT22;9607;51.600;7.558;2023-05-07T00:20:25;13.50;99.90
18948;DHT22;9607;51.600;7.558;2023-05-07T00:22:51;13.50;99.90
18948;DHT22;9607;51.600;7.558;2023-05-07T00:25:20;13.60;99.90
18948;DHT22;9607;51.600;7.558;2023-05-07T00:27:47;13.60;99.90
18948;DHT22;9607;51.600;7.558;2023-05-07T00:30:14;13.60;99.90
18948;DHT22;9607;51.600;7.558;2023-05-07T00:32:41;13.60;99.90
18948;DHT22;9607;51.600;7.558;2023-05-07T00:35:11;13.70;99.90
18948;DHT22;9607;51.600;7.558;2023-05-07T00:37:38;13.70;99.90
18948;DHT22;9607;51.600;7.558;2023-05-07T00:40:05;13.70;99.90
18948;DHT22;9607;51.600;7.558;2023-05-07T00:42:35;13.70;99.90
18948;DHT22;9607;51.600;7.558;2023-05-07T00:45:02;13.70;99.90
18948;DHT22;9607;51.600;7.558;2023-05-07T00:47:30;13.70;99.90
18948;DHT22;9607;51.600;7.558;2023-05-07T00:49:57;13.70;99.90
18948;DHT22;9607;51.600;7.558;2023-05-07T00:52:25;13.80;99.90
18948;DHT22;9607;51.600;7.558;2023-05-07T00:54:52;13.80;99.90
18948;DHT22;9607;51.600;7.558;2023-05-07T00:57:21;13.80;99.90
18948;DHT22;9607;51.600;7.558;2023-05-07T00:59:51;13.80;99.90
18948;DHT22;9607;51.600;7.558;2023-05-07T01:02:18;13.80;99.90
18948;DHT22;9607;51.600;7.558;2023-05-07T01:04:45;13.80;99.90
18948;DHT22;9607;51.600;7.558;2023-05-07T01:07:12;13.80;99.90
18948;DHT22;9607;51.600;7.558;2023-05-07T01:09:40;13.80;99.90
18948;DHT22;9607;51.600;7.558;2023-05-07T01:12:07;13.80;99.90
18948;DHT22;9607;51.600;7.558;2023-05-07T01:14:34;13.80;99.90
18948;DHT22;9607;51.600;7.558;2023-05-07T01:17:02;13.80;99.90
18948;DHT22;9607;51.600;7.558;2023-05-07T01:19:30;13.80;99.90
18948;DHT22;9607;51.600;7.558;2023-05-07T01:22:02;13.80;99.90
18948;DHT22;9607;51.600;7.558;2023-05-07T01:24:31;13.80;99.90
18948;DHT22;9607;51.600;7.558;2023-05-07T01:26:59;13.80;99.90
18948;DHT22;9607;51.600;7.558;2023-05-07T01:29:26;13.80;99.90
18948;DHT22;9607;51.600;7.558;2023-05-07T01:31:54;13.80;99.90
18948;DHT22;9607;51.600;7.558;2023-05-07T01:34:21;13.80;99.90
18948;DHT22;9607;51.600;7.558;2023-05-07T01:36:49;13.70;99.90
18948;DHT22;9607;51.600;7.558;2023-05-07T01:39:16;13.70;99.90
18948;DHT22;9607;51.600;7.558;2023-05-07T01:41:45;13.70;99.90
18948;DHT22;9607;51.600;7.558;2023-05-07T01:44:13;13.70;99.90
18948;DHT22;9607;51.600;7.558;2023-05-07T01:46:41;13.70;99.90
18948;DHT22;9607;51.600;7.558;2023-05-07T01:49:08;13.70;99.90
18948;DHT22;9607;51.600;7.558;2023-05-07T01:51:35;13.70;99.90
18948;DHT22;9607;51.600;7.558;2023-05-07T01:54:02;13.60;99.90
18948;DHT22;9607;51.600;7.558;2023-05-07T01:56:29;13.60;99.90
18948;DHT22;9607;51.600;7.558;2023-05-07T01:58:57;13.60;99.90
18948;DHT22;9607;51.600;7.558;2023-05-07T02:01:24;13.60;99.90
18948;DHT22;9607;51.600;7.558;2023-05-07T02:03:51;13.50;99.90
18948;DHT22;9607;51.600;7.558;2023-05-07T02:06:19;13.50;99.90
18948;DHT22;9607;51.600;7.558;2023-05-07T02:08:47;13.60;99.90
18948;DHT22;9607;51.600;7.558;2023-05-07T02:11:13;13.50;99.90
18948;DHT22;9607;51.600;7.558;2023-05-07T02:13:41;13.50;99.90
18948;DHT22;9607;51.600;7.558;2023-05-07T02:16:09;13.60;99.90
18948;DHT22;9607;51.600;7.558;2023-05-07T02:18:36;13.50;99.90
18948;DHT22;9607;51.600;7.558;2023-05-07T02:21:03;13.50;99.90
18948;DHT22;9607;51.600;7.558;2023-05-07T02:23:30;13.50;99.90
18948;DHT22;9607;51.600;7.558;2023-05-07T02:25:57;13.60;99.90
18948;DHT22;9607;51.600;7.558;2023-05-07T02:28:23;13.60;99.90
18948;DHT22;9607;51.600;7.558;2023-05-07T02:30:50;13.60;99.90
18948;DHT22;9607;51.600;7.558;2023-05-07T02:33:18;13.60;99.90
18948;DHT22;9607;51.600;7.558;2023-05-07T02:35:45;13.50;99.90
18948;DHT22;9607;51.600;7.558;2023-05-07T02:38:12;13.50;99.90
18948;DHT22;9607;51.600;7.558;2023-05-07T02:40:39;13.50;99.90
18948;DHT22;9607;51.600;7.558;2023-05-07T02:43:06;13.50;99.90
18948;DHT22;9607;51.600;7.558;2023-05-07T02:45:33;13.50;99.90
18948;DHT22;9607;51.600;7.558;2023-05-07T02:48:00;13.50;99.90
18948;DHT22;9607;51.600;7.558;2023-05-07T02:50:28;13.50;99.90
18948;DHT22;9607;51.600;7.558;2023-05-07T02:52:55;13.50;99.90
18948;DHT22;9607;51.600;7.558;2023-05-07T02:55:22;13.50;99.90
18948;DHT22;9607;51.600;7.558;2023-05-07T02:57:48;13.50;99.90
18948;DHT22;9607;51.600;7.558;2023-05-07T03:00:17;13.50;99.90
18948;DHT22;9607;51.600;7.558;2023-05-07T03:02:44;13.40;99.90
18948;DHT22;9607;51.600;7.558;2023-05-07T03:05:11;13.40;99.90
18948;DHT22;9607;51.600;7.558;2023-05-07T03:07:41;13.40;99.90
18948;DHT22;9607;51.600;7.558;2023-05-07T03:10:10;13.50;99.90
18948;DHT22;9607;51.600;7.558;2023-05-07T03:12:37;13.40;99.90
18948;DHT22;9607;51.600;7.558;2023-05-07T03:15:05;13.40;99.90
18948;DHT22;9607;51.600;7.558;2023-05-07T03:17:32;13.40;99.90
18948;DHT22;9607;51.600;7.558;2023-05-07T03:19:58;13.40;99.90
18948;DHT22;9607;51.600;7.558;2023-05-07T03:22:25;13.40;99.90
18948;DHT22;9607;51.600;7.558;2023-05-07T03:24:53;13.40;99.90
18948;DHT22;9607;51.600;7.558;2023-05-07T03:27:20;13.40;99.90
18948;DHT22;9607;51.600;7.558;2023-05-07T03:29:47;13.40;99.90
18948;DHT22;9607;51.600;7.558;2023-05-07T03:32:14;13.40;99.90
18948;DHT22;9607;51.600;7.558;2023-05-07T03:34:41;13.40;99.90
18948;DHT22;9607;51.600;7.558;2023-05-07T03:37:08;13.30;99.90
18948;DHT22;9607;51.600;7.558;2023-05-07T03:39:35;13.30;99.90
18948;DHT22;9607;51.600;7.558;2023-05-07T03:42:03;13.30;99.90
18948;DHT22;9607;51.600;7.558;2023-05-07T03:44:30;13.30;99.90
18948;DHT22;9607;51.600;7.558;2023-05-07T03:46:57;13.30;99.90
18948;DHT22;9607;51.600;7.558;2023-05-07T03:49:23;13.30;99.90
18948;DHT22;9607;51.600;7.558;2023-05-07T03:51:50;13.30;99.90
18948;DHT22;9607;51.600;7.558;2023-05-07T03:54:17;13.30;99.90
18948;DHT22;9607;51.600;7.558;2023-05-07T03:56:44;13.30;99.90
18948;DHT22;9607;51.600;7.558;2023-05-07T03:59:12;13.30;99.90
18948;DHT22;9607;51.600;7.558;2023-05-07T04:01:39;13.30;99.90
18948;DHT22;9607;51.600;7.558;2023-05-07T04:04:06;13.30;99.90
18948;DHT22;9607;51.600;7.558;2023-05-07T04:06:33;13.40;99.90
18948;DHT22;9607;51.600;7.558;2023-05-07T04:09:00;13.40;99.90
18948;DHT22;9607;51.600;7.558;2023-05-07T04:11:27;13.40;99.90
18948;DHT22;9607;51.600;7.558;2023-05-07T04:13:54;13.40;99.90
18948;DHT22;9607;51.600;7.558;2023-05-07T04:16:22;13.40;99.90
18948;DHT22;9607;51.600;7.558;2023-05-07T04:18:49;13.40;99.90
18948;DHT22;9607;51.600;7.558;2023-05-07T04:21:16;13.40;99.90
18948;DHT22;9607;51.600;7.558;2023-05-07T04:23:43;13.40;99.90
18948;DHT22;9607;51.600;7.558;2023-05-07T04:26:10;13.40;99.90
18948;DHT22;9607;51.600;7.558;2023-05-07T04:28:38;13.40;99.90
18948;DHT22;9607;51.600;7.558;2023-05-07T04:31:07;13.50;99.90
18948;DHT22;9607;51.600;7.558;2023-05-07T04:33:35;13.50;99.90
18948;DHT22;9607;51.600;7.558;2023-05-07T04:36:03;13.60;99.90
18948;DHT22;9607;51.600;7.558;2023-05-07T04:38:30;13.60;99.90
18948;DHT22;9607;51.600;7.558;2023-05-07T04:40:57;13.60;99.90
18948;DHT22;9607;51.600;7.558;2023-05-07T04:43:23;13.60;99.90
18948;DHT22;9607;51.600;7.558;2023-05-07T04:45:50;13.70;99.90
18948;DHT22;9607;51.600;7.558;2023-05-07T04:48:17;13.70;99.90
18948;DHT22;9607;51.600;7.558;2023-05-07T04:50:49;13.70;99.90
18948;DHT22;9607;51.600;7.558;2023-05-07T04:53:16;13.80;99.90
18948;DHT22;9607;51.600;7.558;2023-05-07T04:55:43;13.90;99.90
18948;DHT22;9607;51.600;7.558;2023-05-07T04:58:10;13.90;99.90
18948;DHT22;9607;51.600;7.558;2023-05-07T05:00:37;13.90;99.90
18948;DHT22;9607;51.600;7.558;2023-05-07T05:03:04;14.00;99.90
18948;DHT22;9607;51.600;7.558;2023-05-07T05:05:31;14.10;99.90
18948;DHT22;9607;51.600;7.558;2023-05-07T05:07:59;14.10;99.90
18948;DHT22;9607;51.600;7.558;2023-05-07T05:10:26;14.20;99.90
18948;DHT22;9607;51.600;7.558;2023-05-07T05:12:53;14.40;99.90
18948;DHT22;9607;51.600;7.558;2023-05-07T05:15:20;14.50;99.90
18948;DHT22;9607;51.600;7.558;2023-05-07T05:17:46;14.60;99.90
18948;DHT22;9607;51.600;7.558;2023-05-07T05:20:13;14.60;99.90
18948;DHT22;9607;51.600;7.558;2023-05-07T05:22:41;14.80;99.90
18948;DHT22;9607;51.600;7.558;2023-05-07T05:25:09;14.90;99.90
18948;DHT22;9607;51.600;7.558;2023-05-07T05:27:36;15.00;99.90
18948;DHT22;9607;51.600;7.558;2023-05-07T05:30:04;15.10;99.90
18948;DHT22;9607;51.600;7.558;2023-05-07T05:32:31;15.20;99.90
18948;DHT22;9607;51.600;7.558;2023-05-07T05:34:58;15.20;99.90
18948;DHT22;9607;51.600;7.558;2023-05-07T05:37:25;15.30;99.90
18948;DHT22;9607;51.600;7.558;2023-05-07T05:39:52;15.30;99.90
18948;DHT22;9607;51.600;7.558;2023-05-07T05:42:21;15.30;99.90
18948;DHT22;9607;51.600;7.558;2023-05-07T05:44:48;15.30;99.90
18948;DHT22;9607;51.600;7.558;2023-05-07T05:47:15;15.40;99.90
18948;DHT22;9607;51.600;7.558;2023-05-07T05:49:42;15.30;99.90
18948;DHT22;9607;51.600;7.558;2023-05-07T05:52:11;15.30;99.90
18948;DHT22;9607;51.600;7.558;2023-05-07T05:54:38;15.30;99.90
18948;DHT22;9607;51.600;7.558;2023-05-07T05:57:05;15.30;99.90
18948;DHT22;9607;51.600;7.558;2023-05-07T05:59:33;15.30;99.90
18948;DHT22;9607;51.600;7.558;2023-05-07T06:02:00;15.30;99.90
18948;DHT22;9607;51.600;7.558;2023-05-07T06:04:27;15.30;99.90
18948;DHT22;9607;51.600;7.558;2023-05-07T06:06:53;15.40;99.90
18948;DHT22;9607;51.600;7.558;2023-05-07T06:09:20;15.40;99.90
18948;DHT22;9607;51.600;7.558;2023-05-07T06:11:47;15.40;99.90
18948;DHT22;9607;51.600;7.558;2023-05-07T06:14:14;15.60;99.90
18948;DHT22;9607;51.600;7.558;2023-05-07T06:16:42;15.60;99.90
18948;DHT22;9607;51.600;7.558;2023-05-07T06:19:09;15.70;99.90
18948;DHT22;9607;51.600;7.558;2023-05-07T06:21:35;15.80;99.90
18948;DHT22;9607;51.600;7.558;2023-05-07T06:24:02;15.90;99.90
18948;DHT22;9607;51.600;7.558;2023-05-07T06:26:29;16.00;99.90
18948;DHT22;9607;51.600;7.558;2023-05-07T06:28:56;16.10;99.90
18948;DHT22;9607;51.600;7.558;2023-05-07T06:31:23;16.20;99.90
18948;DHT22;9607;51.600;7.558;2023-05-07T06:33:51;16.30;99.90
18948;DHT22;9607;51.600;7.558;2023-05-07T06:36:17;16.40;99.90
18948;DHT22;9607;51.600;7.558;2023-05-07T06:38:44;16.50;99.90
18948;DHT22;9607;51.600;7.558;2023-05-07T06:41:11;16.60;99.90
18948;DHT22;9607;51.600;7.558;2023-05-07T06:43:38;16.80;99.90
18948;DHT22;9607;51.600;7.558;2023-05-07T06:46:05;16.90;99.90
18948;DHT22;9607;51.600;7.558;2023-05-07T06:48:31;17.10;99.90
18948;DHT22;9607;51.600;7.558;2023-05-07T06:51:00;17.30;99.90
18948;DHT22;9607;51.600;7.558;2023-05-07T06:53:26;17.50;99.90
18948;DHT22;9607;51.600;7.558;2023-05-07T06:55:54;17.60;99.90
18948;DHT22;9607;51.600;7.558;2023-05-07T06:58:21;17.80;99.90
18948;DHT22;9607;51.600;7.558;2023-05-07T07:00:48;17.90;99.90
18948;DHT22;9607;51.600;7.558;2023-05-07T07:03:15;18.00;99.90
18948;DHT22;9607;51.600;7.558;2023-05-07T07:05:42;18.10;99.90
18948;DHT22;9607;51.600;7.558;2023-05-07T07:08:10;18.20;99.90
18948;DHT22;9607;51.600;7.558;2023-05-07T07:10:37;18.20;99.90
18948;DHT22;9607;51.600;7.558;2023-05-07T07:13:04;18.30;99.90
18948;DHT22;9607;51.600;7.558;2023-05-07T07:15:31;18.30;99.90
18948;DHT22;9607;51.600;7.558;2023-05-07T07:17:58;18.40;99.90
18948;DHT22;9607;51.600;7.558;2023-05-07T07:20:25;18.40;99.90
18948;DHT22;9607;51.600;7.558;2023-05-07T07:22:52;18.50;99.90
18948;DHT22;9607;51.600;7.558;2023-05-07T07:25:20;18.50;99.90
18948;DHT22;9607;51.600;7.558;2023-05-07T07:27:47;18.50;99.90
18948;DHT22;9607;51.600;7.558;2023-05-07T07:30:14;18.50;99.90
18948;DHT22;9607;51.600;7.558;2023-05-07T07:32:41;18.60;99.90
18948;DHT22;9607;51.600;7.558;2023-05-07T07:35:08;18.60;99.90
18948;DHT22;9607;51.600;7.558;2023-05-07T07:37:35;18.70;99.90
18948;DHT22;9607;51.600;7.558;2023-05-07T07:40:02;18.90;99.90
18948;DHT22;9607;51.600;7.558;2023-05-07T07:42:30;19.00;99.90
18948;DHT22;9607;51.600;7.558;2023-05-07T07:44:57;19.10;99.90
18948;DHT22;9607;51.600;7.558;2023-05-07T07:47:24;19.10;99.90
18948;DHT22;9607;51.600;7.558;2023-05-07T07:49:51;19.20;99.90
18948;DHT22;9607;51.600;7.558;2023-05-07T07:52:18;19.20;99.90
18948;DHT22;9607;51.600;7.558;2023-05-07T07:54:45;19.20;99.90
18948;DHT22;9607;51.600;7.558;2023-05-07T07:57:12;19.30;99.90
18948;DHT22;9607;51.600;7.558;2023-05-07T07:59:40;19.20;99.90
18948;DHT22;9607;51.600;7.558;2023-05-07T08:02:08;19.10;99.90
18948;DHT22;9607;51.600;7.558;2023-05-07T08:04:35;19.10;99.90
18948;DHT22;9607;51.600;7.558;2023-05-07T08:07:02;19.00;99.90
18948;DHT22;9607;51.600;7.558;2023-05-07T08:09:29;19.00;99.90
18948;DHT22;9607;51.600;7.558;2023-05-07T08:11:56;19.00;99.90
18948;DHT22;9607;51.600;7.558;2023-05-07T08:14:23;19.00;99.90
18948;DHT22;9607;51.600;7.558;2023-05-07T08:16:51;19.10;99.90
18948;DHT22;9607;51.600;7.558;2023-05-07T08:19:20;19.10;99.90
18948;DHT22;9607;51.600;7.558;2023-05-07T08:21:48;19.20;99.90
18948;DHT22;9607;51.600;7.558;2023-05-07T08:24:15;19.30;99.90
18948;DHT22;9607;51.600;7.558;2023-05-07T08:26:42;19.30;99.90
18948;DHT22;9607;51.600;7.558;2023-05-07T08:29:09;19.50;99.90
18948;DHT22;9607;51.600;7.558;2023-05-07T08:31:36;19.70;99.90
18948;DHT22;9607;51.600;7.558;2023-05-07T08:34:05;19.90;99.90
18948;DHT22;9607;51.600;7.558;2023-05-07T08:36:33;20.20;99.90
18948;DHT22;9607;51.600;7.558;2023-05-07T08:39:00;20.40;99.90
18948;DHT22;9607;51.600;7.558;2023-05-07T08:41:27;20.60;99.90
18948;DHT22;9607;51.600;7.558;2023-05-07T08:43:57;20.80;99.90
18948;DHT22;9607;51.600;7.558;2023-05-07T08:46:25;20.90;99.90
18948;DHT22;9607;51.600;7.558;2023-05-07T08:48:52;21.00;99.90
18948;DHT22;9607;51.600;7.558;2023-05-07T08:51:21;21.20;99.90
18948;DHT22;9607;51.600;7.558;2023-05-07T08:53:49;21.30;99.90
18948;DHT22;9607;51.600;7.558;2023-05-07T08:56:16;21.40;99.90
18948;DHT22;9607;51.600;7.558;2023-05-07T08:58:43;21.60;99.90
18948;DHT22;9607;51.600;7.558;2023-05-07T09:01:13;21.80;99.90
18948;DHT22;9607;51.600;7.558;2023-05-07T09:03:41;22.10;99.90
18948;DHT22;9607;51.600;7.558;2023-05-07T09:06:10;22.30;99.90
18948;DHT22;9607;51.600;7.558;2023-05-07T09:08:38;22.50;99.90
18948;DHT22;9607;51.600;7.558;2023-05-07T09:11:05;22.70;99.90
18948;DHT22;9607;51.600;7.558;2023-05-07T09:13:32;22.80;99.90
18948;DHT22;9607;51.600;7.558;2023-05-07T09:16:06;22.80;99.90
18948;DHT22;9607;51.600;7.558;2023-05-07T09:18:40;22.90;99.90
18948;DHT22;9607;51.600;7.558;2023-05-07T09:21:10;23.00;99.90
18948;DHT22;9607;51.600;7.558;2023-05-07T09:23:38;23.10;99.90
18948;DHT22;9607;51.600;7.558;2023-05-07T09:26:06;23.30;99.90
18948;DHT22;9607;51.600;7.558;2023-05-07T09:28:38;23.40;99.90
18948;DHT22;9607;51.600;7.558;2023-05-07T09:31:06;23.60;99.90
18948;DHT22;9607;51.600;7.558;2023-05-07T09:33:33;23.60;99.90
18948;DHT22;9607;51.600;7.558;2023-05-07T09:36:02;23.60;99.90
18948;DHT22;9607;51.600;7.558;2023-05-07T09:38:30;23.70;99.90
18948;DHT22;9607;51.600;7.558;2023-05-07T09:41:07;23.70;99.90
18948;DHT22;9607;51.600;7.558;2023-05-07T09:43:34;23.90;99.90
18948;DHT22;9607;51.600;7.558;2023-05-07T09:46:03;24.10;99.90
18948;DHT22;9607;51.600;7.558;2023-05-07T09:48:34;24.10;99.90
18948;DHT22;9607;51.600;7.558;2023-05-07T09:51:02;24.20;99.90
18948;DHT22;9607;51.600;7.558;2023-05-07T09:53:33;24.10;99.90
18948;DHT22;9607;51.600;7.558;2023-05-07T09:56:01;24.10;99.90
18948;DHT22;9607;51.600;7.558;2023-05-07T09:58:30;24.10;99.90
18948;DHT22;9607;51.600;7.558;2023-05-07T10:00:58;23.90;99.90
18948;DHT22;9607;51.600;7.558;2023-05-07T10:03:27;23.80;99.90
18948;DHT22;9607;51.600;7.558;2023-05-07T10:05:56;23.70;99.90
18948;DHT22;9607;51.600;7.558;2023-05-07T10:08:23;23.60;99.90
18948;DHT22;9607;51.600;7.558;2023-05-07T10:10:50;23.50;99.90
18948;DHT22;9607;51.600;7.558;2023-05-07T10:13:19;23.50;99.90
18948;DHT22;9607;51.600;7.558;2023-05-07T10:15:47;23.50;99.90
18948;DHT22;9607;51.600;7.558;2023-05-07T10:18:15;23.50;99.90
18948;DHT22;9607;51.600;7.558;2023-05-07T10:20:44;23.60;99.90
18948;DHT22;9607;51.600;7.558;2023-05-07T10:23:14;23.70;99.90
18948;DHT22;9607;51.600;7.558;2023-05-07T10:25:43;23.80;99.90
18948;DHT22;9607;51.600;7.558;2023-05-07T10:28:11;23.80;99.90
18948;DHT22;9607;51.600;7.558;2023-05-07T10:30:48;23.90;99.90
18948;DHT22;9607;51.600;7.558;2023-05-07T10:33:23;24.00;99.90
18948;DHT22;9607;51.600;7.558;2023-05-07T10:35:57;24.10;99.90
18948;DHT22;9607;51.600;7.558;2023-05-07T10:38:25;24.10;99.90
18948;DHT22;9607;51.600;7.558;2023-05-07T10:40:52;24.20;99.90
18948;DHT22;9607;51.600;7.558;2023-05-07T10:43:19;24.20;99.90
18948;DHT22;9607;51.600;7.558;2023-05-07T10:46:09;24.20;99.90
18948;DHT22;9607;51.600;7.558;2023-05-07T10:49:10;24.10;99.90
18948;DHT22;9607;51.600;7.558;2023-05-07T10:51:38;24.20;99.90
18948;DHT22;9607;51.600;7.558;2023-05-07T10:54:21;24.30;99.90
18948;DHT22;9607;51.600;7.558;2023-05-07T10:56:49;24.50;99.90
18948;DHT22;9607;51.600;7.558;2023-05-07T10:59:38;24.50;99.90
18948;DHT22;9607;51.600;7.558;2023-05-07T11:02:09;24.50;99.90
18948;DHT22;9607;51.600;7.558;2023-05-07T11:04:39;24.60;99.90
18948;DHT22;9607;51.600;7.558;2023-05-07T11:07:24;24.70;99.90
18948;DHT22;9607;51.600;7.558;2023-05-07T11:10:01;24.80;99.90
18948;DHT22;9607;51.600;7.558;2023-05-07T11:12:52;24.90;99.90
18948;DHT22;9607;51.600;7.558;2023-05-07T11:15:39;25.20;99.90
18948;DHT22;9607;51.600;7.558;2023-05-07T11:18:09;25.40;99.90
18948;DHT22;9607;51.600;7.558;2023-05-07T11:26:47;25.80;99.80
18948;DHT22;9607;51.600;7.558;2023-05-07T11:29:16;26.00;99.00
18948;DHT22;9607;51.600;7.558;2023-05-07T11:31:43;26.00;98.50
18948;DHT22;9607;51.600;7.558;2023-05-07T11:34:11;26.00;97.60
18948;DHT22;9607;51.600;7.558;2023-05-07T11:36:42;26.00;97.20
18948;DHT22;9607;51.600;7.558;2023-05-07T11:39:27;26.10;97.20
18948;DHT22;9607;51.600;7.558;2023-05-07T11:41:55;26.30;97.10
18948;DHT22;9607;51.600;7.558;2023-05-07T11:44:24;26.40;95.80
18948;DHT22;9607;51.600;7.558;2023-05-07T11:46:51;26.60;92.60
18948;DHT22;9607;51.600;7.558;2023-05-07T11:49:19;26.60;92.20
18948;DHT22;9607;51.600;7.558;2023-05-07T11:51:46;26.60;92.90
18948;DHT22;9607;51.600;7.558;2023-05-07T11:54:16;26.70;93.20
18948;DHT22;9607;51.600;7.558;2023-05-07T11:56:44;26.90;93.10
18948;DHT22;9607;51.600;7.558;2023-05-07T11:59:11;27.00;92.20
18948;DHT22;9607;51.600;7.558;2023-05-07T12:01:38;27.00;91.40
18948;DHT22;9607;51.600;7.558;2023-05-07T12:04:05;27.10;91.70
18948;DHT22;9607;51.600;7.558;2023-05-07T12:06:36;27.40;90.20
18948;DHT22;9607;51.600;7.558;2023-05-07T12:09:04;27.50;86.40
18948;DHT22;9607;51.600;7.558;2023-05-07T12:11:32;27.50;84.70
18948;DHT22;9607;51.600;7.558;2023-05-07T12:13:59;27.40;84.60
18948;DHT22;9607;51.600;7.558;2023-05-07T12:16:26;27.30;85.20
18948;DHT22;9607;51.600;7.558;2023-05-07T12:18:54;27.50;87.60
18948;DHT22;9607;51.600;7.558;2023-05-07T12:21:21;28.40;86.10
18948;DHT22;9607;51.600;7.558;2023-05-07T12:23:51;29.10;84.30
18948;DHT22;9607;51.600;7.558;2023-05-07T12:26:19;29.90;80.10
18948;DHT22;9607;51.600;7.558;2023-05-07T12:28:46;30.90;75.80
18948;DHT22;9607;51.600;7.558;2023-05-07T12:31:14;32.00;72.70
18948;DHT22;9607;51.600;7.558;2023-05-07T12:33:41;33.00;66.00
18948;DHT22;9607;51.600;7.558;2023-05-07T12:36:08;33.80;60.40
18948;DHT22;9607;51.600;7.558;2023-05-07T12:38:37;34.20;55.90
18948;DHT22;9607;51.600;7.558;2023-05-07T12:41:06;34.10;54.80
18948;DHT22;9607;51.600;7.558;2023-05-07T12:43:33;33.70;54.40
18948;DHT22;9607;51.600;7.558;2023-05-07T12:46:03;33.00;54.80
18948;DHT22;9607;51.600;7.558;2023-05-07T12:48:30;32.30;55.00
18948;DHT22;9607;51.600;7.558;2023-05-07T12:51:00;31.50;56.50
18948;DHT22;9607;51.600;7.558;2023-05-07T12:53:29;30.80;57.90
18948;DHT22;9607;51.600;7.558;2023-05-07T12:55:58;30.30;59.30
18948;DHT22;9607;51.600;7.558;2023-05-07T12:58:28;29.80;60.80
18948;DHT22;9607;51.600;7.558;2023-05-07T13:00:56;29.40;62.00
18948;DHT22;9607;51.600;7.558;2023-05-07T13:03:26;29.00;64.00
18948;DHT22;9607;51.600;7.558;2023-05-07T13:05:54;28.70;65.10
18948;DHT22;9607;51.600;7.558;2023-05-07T13:08:28;28.40;66.10
18948;DHT22;9607;51.600;7.558;2023-05-07T13:10:56;28.10;67.60
18948;DHT22;9607;51.600;7.558;2023-05-07T13:13:23;27.80;68.40
18948;DHT22;9607;51.600;7.558;2023-05-07T13:15:51;27.50;68.90
18948;DHT22;9607;51.600;7.558;2023-05-07T13:18:18;27.20;70.30
18948;DHT22;9607;51.600;7.558;2023-05-07T13:20:45;27.00;71.50
18948;DHT22;9607;51.600;7.558;2023-05-07T13:23:12;26.70;73.20
18948;DHT22;9607;51.600;7.558;2023-05-07T13:25:39;26.50;75.10
18948;DHT22;9607;51.600;7.558;2023-05-07T13:28:06;26.30;76.50
18948;DHT22;9607;51.600;7.558;2023-05-07T13:30:33;26.10;78.10
18948;DHT22;9607;51.600;7.558;2023-05-07T13:33:01;25.90;79.60
18948;DHT22;9607;51.600;7.558;2023-05-07T13:35:28;25.70;81.10
18948;DHT22;9607;51.600;7.558;2023-05-07T13:37:55;25.50;82.50
18948;DHT22;9607;51.600;7.558;2023-05-07T13:40:22;25.40;83.90
18948;DHT22;9607;51.600;7.558;2023-05-07T13:42:49;25.20;85.70
18948;DHT22;9607;51.600;7.558;2023-05-07T13:45:17;25.00;88.20
18948;DHT22;9607;51.600;7.558;2023-05-07T13:47:44;25.00;90.40
18948;DHT22;9607;51.600;7.558;2023-05-07T13:50:13;24.90;91.40
18948;DHT22;9607;51.600;7.558;2023-05-07T13:52:41;24.80;92.50
18948;DHT22;9607;51.600;7.558;2023-05-07T13:55:09;24.70;92.90
18948;DHT22;9607;51.600;7.558;2023-05-07T13:57:36;24.50;93.20
18948;DHT22;9607;51.600;7.558;2023-05-07T14:00:03;24.40;94.30
18948;DHT22;9607;51.600;7.558;2023-05-07T14:02:31;24.30;95.10
18948;DHT22;9607;51.600;7.558;2023-05-07T14:04:57;24.30;95.80
18948;DHT22;9607;51.600;7.558;2023-05-07T14:07:26;24.30;96.70
18948;DHT22;9607;51.600;7.558;2023-05-07T14:09:52;24.40;97.20
18948;DHT22;9607;51.600;7.558;2023-05-07T14:12:19;24.40;97.40
18948;DHT22;9607;51.600;7.558;2023-05-07T14:14:46;24.40;97.70
18948;DHT22;9607;51.600;7.558;2023-05-07T14:17:15;24.50;98.00
18948;DHT22;9607;51.600;7.558;2023-05-07T14:19:42;24.70;98.40
18948;DHT22;9607;51.600;7.558;2023-05-07T14:22:08;24.90;98.10
18948;DHT22;9607;51.600;7.558;2023-05-07T14:24:37;25.00;97.80
18948;DHT22;9607;51.600;7.558;2023-05-07T14:27:05;25.10;97.30
18948;DHT22;9607;51.600;7.558;2023-05-07T14:29:32;25.30;97.00
18948;DHT22;9607;51.600;7.558;2023-05-07T14:32:01;25.40;95.90
18948;DHT22;9607;51.600;7.558;2023-05-07T14:34:28;25.50;95.20
18948;DHT22;9607;51.600;7.558;2023-05-07T14:36:54;25.60;94.60
18948;DHT22;9607;51.600;7.558;2023-05-07T14:39:21;25.70;94.10
18948;DHT22;9607;51.600;7.558;2023-05-07T14:41:50;25.80;94.00
18948;DHT22;9607;51.600;7.558;2023-05-07T14:44:16;25.80;93.30
18948;DHT22;9607;51.600;7.558;2023-05-07T14:46:43;25.90;93.10
18948;DHT22;9607;51.600;7.558;2023-05-07T14:49:10;25.90;93.30
18948;DHT22;9607;51.600;7.558;2023-05-07T14:51:42;26.00;93.30
18948;DHT22;9607;51.600;7.558;2023-05-07T14:54:09;26.10;93.00
18948;DHT22;9607;51.600;7.558;2023-05-07T14:56:36;26.10;93.00
18948;DHT22;9607;51.600;7.558;2023-05-07T14:59:05;26.10;92.90
18948;DHT22;9607;51.600;7.558;2023-05-07T15:01:32;26.00;92.90
18948;DHT22;9607;51.600;7.558;2023-05-07T15:04:00;26.00;93.10
18948;DHT22;9607;51.600;7.558;2023-05-07T15:06:27;26.00;93.20
18948;DHT22;9607;51.600;7.558;2023-05-07T15:08:54;25.90;93.00
18948;DHT22;9607;51.600;7.558;2023-05-07T15:11:22;25.80;93.40
18948;DHT22;9607;51.600;7.558;2023-05-07T15:13:49;25.70;93.80
18948;DHT22;9607;51.600;7.558;2023-05-07T15:16:18;25.50;93.90
18948;DHT22;9607;51.600;7.558;2023-05-07T15:18:45;25.40;94.50
18948;DHT22;9607;51.600;7.558;2023-05-07T15:21:12;25.20;95.20
18948;DHT22;9607;51.600;7.558;2023-05-07T15:23:40;25.00;95.80
18948;DHT22;9607;51.600;7.558;2023-05-07T15:26:07;24.90;96.20
18948;DHT22;9607;51.600;7.558;2023-05-07T15:28:34;24.70;96.70
18948;DHT22;9607;51.600;7.558;2023-05-07T15:31:01;24.60;97.20
18948;DHT22;9607;51.600;7.558;2023-05-07T15:33:29;24.40;97.60
18948;DHT22;9607;51.600;7.558;2023-05-07T15:35:56;24.30;98.30
18948;DHT22;9607;51.600;7.558;2023-05-07T15:38:24;24.10;99.20
18948;DHT22;9607;51.600;7.558;2023-05-07T15:40:51;23.90;99.90
18948;DHT22;9607;51.600;7.558;2023-05-07T15:43:18;23.70;99.90
18948;DHT22;9607;51.600;7.558;2023-05-07T15:45:46;23.60;99.90
18948;DHT22;9607;51.600;7.558;2023-05-07T15:48:12;23.40;99.90
18948;DHT22;9607;51.600;7.558;2023-05-07T15:50:41;23.30;99.90
18948;DHT22;9607;51.600;7.558;2023-05-07T15:53:08;23.20;99.90
18948;DHT22;9607;51.600;7.558;2023-05-07T15:55:35;23.00;99.90